Time;durP1;ratioP1;P1;durP2;ratioP2;P2;SDS_P1;SDS_P2;PMS_P1;PMS_P2;Temp;Humidity;BMP_temperature;BMP_pressure;BME280_temperature;BME280_humidity;BME280_pressure;Samples;Min_cycle;Max_cycle;Signal;HPM_P1;HPM_P2
2022/06/19 00:01:57;;;;;;;9.48;2.50;;;;;;;16.45;62.01;100868.16;5066312;28;20024;-67
2022/06/19 00:04:23;;;;;;;8.07;2.35;;;;;;;16.32;61.84;100880.91;5072578;28;20028;-68
2022/06/19 00:06:49;;;;;;;9.10;2.40;;;;;;;16.41;62.10;100866.84;5083433;28;20028;-68
2022/06/19 00:09:14;;;;;;;9.90;2.22;;;;;;;16.44;61.31;100871.75;5072162;28;20063;-68
2022/06/19 00:11:40;;;;;;;9.07;2.40;;;;;;;16.34;61.97;100865.03;5076196;28;20040;-68
2022/06/19 00:14:06;;;;;;;9.68;2.25;;;;;;;16.33;61.54;100869.44;5078162;28;20035;-68
2022/06/19 00:16:32;;;;;;;9.52;2.70;;;;;;;16.20;62.21;100840.31;5076003;28;20039;-68
2022/06/19 00:18:58;;;;;;;10.30;2.47;;;;;;;16.32;61.42;100852.09;5073100;28;20023;-68
2022/06/19 00:21:23;;;;;;;10.00;2.70;;;;;;;16.22;61.04;100856.66;5078585;28;20020;-68
2022/06/19 00:23:49;;;;;;;8.75;2.38;;;;;;;16.12;60.49;100861.25;5067458;28;20032;-68
2022/06/19 00:26:15;;;;;;;9.68;2.15;;;;;;;16.00;60.73;100857.25;5070776;28;20024;-68
2022/06/19 00:28:40;;;;;;;9.65;2.45;;;;;;;16.05;61.12;100870.69;5073220;28;20388;-68
2022/06/19 00:31:07;;;;;;;8.95;2.72;;;;;;;15.90;60.25;100873.13;5079761;28;20028;-68
2022/06/19 00:33:32;;;;;;;7.80;2.13;;;;;;;15.85;61.69;100860.50;5075409;28;20094;-67
2022/06/19 00:35:58;;;;;;;9.65;2.60;;;;;;;15.87;60.96;100853.31;5070757;28;20052;-68
2022/06/19 00:38:23;;;;;;;10.63;2.95;;;;;;;15.90;60.68;100868.69;5072310;28;20169;-68
2022/06/19 00:40:48;;;;;;;8.98;2.40;;;;;;;15.87;60.27;100863.78;5085997;28;20023;-67
2022/06/19 00:43:14;;;;;;;10.25;2.80;;;;;;;15.83;60.73;100867.69;5073669;28;20016;-67
2022/06/19 00:45:51;;;;;;;9.20;2.90;;;;;;;15.82;60.85;100866.03;5077687;28;20380;-67
2022/06/19 00:48:21;;;;;;;11.68;2.70;;;;;;;15.85;61.26;100875.38;5068209;28;20036;-68
2022/06/19 00:50:49;;;;;;;9.70;2.53;;;;;;;15.62;60.57;100869.88;5068770;28;20456;-68
2022/06/19 00:53:24;;;;;;;9.75;3.20;;;;;;;15.68;60.87;100868.44;5067527;28;20040;-69
2022/06/19 00:55:50;;;;;;;10.77;2.78;;;;;;;15.49;60.71;100859.03;5067144;28;20024;-68
2022/06/19 00:58:38;;;;;;;11.80;2.75;;;;;;;15.53;60.54;100855.09;5071429;28;20033;-69
2022/06/19 01:01:11;;;;;;;10.27;2.67;;;;;;;15.47;60.55;100863.56;5069438;28;20024;-68
2022/06/19 01:04:11;;;;;;;10.77;2.75;;;;;;;15.52;60.35;100854.28;5074730;28;20031;-68
2022/06/19 01:06:37;;;;;;;9.88;2.42;;;;;;;15.37;60.04;100834.97;5022638;28;20049;-69
2022/06/19 01:09:03;;;;;;;11.10;2.80;;;;;;;15.43;60.49;100833.53;5018672;28;20060;-68
2022/06/19 01:11:32;;;;;;;10.50;3.35;;;;;;;15.33;60.16;100839.66;5022382;28;20552;-68
2022/06/19 01:13:57;;;;;;;;;;;;;;;15.54;59.59;100867.19;5022867;28;20029;-69
2022/06/19 01:16:24;;;;;;;12.05;3.22;;;;;;;15.20;60.66;100912.44;5025073;28;20344;-68
2022/06/19 01:18:49;;;;;;;11.15;3.40;;;;;;;15.13;60.55;101013.28;5017866;28;20543;-68
2022/06/19 01:21:43;;;;;;;11.85;3.08;;;;;;;15.10;61.03;101065.84;5022986;28;20580;-69
2022/06/19 01:24:08;;;;;;;10.15;2.72;;;;;;;14.88;60.94;100997.38;5012832;28;20037;-67
2022/06/19 01:26:40;;;;;;;13.85;3.10;;;;;;;14.79;61.50;100940.81;5021421;28;20037;-68
2022/06/19 01:29:07;;;;;;;10.13;3.13;;;;;;;14.77;61.32;100962.84;5022412;28;20040;-68
2022/06/19 01:31:36;;;;;;;14.68;3.35;;;;;;;14.69;61.27;100968.81;5020954;28;20117;-69
2022/06/19 01:36:53;;;;;;;11.40;2.80;;;;;;;14.72;61.44;100934.56;5019572;28;20516;-68
2022/06/19 01:39:19;;;;;;;12.30;3.00;;;;;;;14.68;60.47;100922.81;5021702;28;20052;-68
2022/06/19 01:41:45;;;;;;;11.18;2.80;;;;;;;14.61;59.83;100914.72;5022073;28;20396;-67
2022/06/19 01:44:10;;;;;;;11.80;2.60;;;;;;;14.64;59.25;100924.06;5074138;28;20031;-68
2022/06/19 01:46:35;;;;;;;16.67;6.95;;;;;;;14.61;58.84;100947.84;5065562;28;20082;-69
2022/06/19 01:49:02;;;;;;;14.05;3.03;;;;;;;14.55;57.19;100943.22;5080482;28;20113;-68
2022/06/19 01:51:27;;;;;;;11.40;3.03;;;;;;;14.67;57.31;100949.84;5075073;28;20096;-69
2022/06/19 01:54:04;;;;;;;8.98;2.53;;;;;;;14.68;56.99;100942.84;5068395;28;20462;-67
2022/06/19 01:56:31;;;;;;;13.88;4.38;;;;;;;14.65;56.91;100954.41;5077482;28;20028;-68
2022/06/19 01:59:03;;;;;;;12.65;3.72;;;;;;;14.72;57.61;100954.63;5080700;28;20029;-68
2022/06/19 02:01:29;;;;;;;11.05;2.92;;;;;;;14.58;57.85;100942.94;5072434;28;20027;-68
2022/06/19 02:03:57;;;;;;;11.70;2.67;;;;;;;14.58;57.82;100956.81;5079801;28;20028;-69
2022/06/19 02:06:25;;;;;;;;;;;;;;;14.78;57.91;100970.53;5085547;28;20024;-68
2022/06/19 02:08:51;;;;;;;11.73;2.90;;;;;;;14.66;57.33;100966.50;5067817;28;19958;-68
2022/06/19 02:11:18;;;;;;;9.90;3.00;;;;;;;14.74;56.86;100974.41;5066507;28;20045;-67
2022/06/19 02:13:45;;;;;;;10.63;2.80;;;;;;;14.67;56.64;100977.75;5073108;28;20029;-68
2022/06/19 02:16:15;;;;;;;10.32;2.47;;;;;;;14.74;56.59;100974.41;5065158;28;20382;-68
2022/06/19 02:18:43;;;;;;;11.82;2.50;;;;;;;14.59;57.09;100961.03;5072817;28;20073;-68
2022/06/19 02:21:15;;;;;;;12.98;3.08;;;;;;;14.56;56.85;100963.94;5080098;28;20036;-68
2022/06/19 02:23:41;;;;;;;10.85;2.58;;;;;;;14.57;57.25;100980.44;5067114;28;20028;-68
2022/06/19 02:26:09;;;;;;;10.18;2.95;;;;;;;14.57;57.73;100983.06;5066047;28;20042;-68
2022/06/19 02:28:37;;;;;;;12.73;2.47;;;;;;;14.54;57.98;100975.50;5075838;28;20032;-68
2022/06/19 02:31:06;;;;;;;9.98;2.20;;;;;;;14.54;58.27;100970.28;5068819;28;20392;-68
2022/06/19 02:33:35;;;;;;;13.38;2.60;;;;;;;14.61;58.59;100984.38;5065979;28;20029;-68
2022/06/19 02:36:01;;;;;;;11.27;2.38;;;;;;;14.52;58.34;100972.22;5064907;28;20042;-69
2022/06/19 02:38:27;;;;;;;11.75;2.70;;;;;;;14.59;59.04;100987.16;5079761;28;20029;-67
2022/06/19 02:41:19;;;;;;;12.70;2.67;;;;;;;14.56;59.20;100978.78;5079504;28;20028;-68
2022/06/19 02:43:44;;;;;;;8.88;1.92;;;;;;;14.59;59.12;101002.00;5084317;28;20468;-68
2022/06/19 02:46:10;;;;;;;10.25;2.38;;;;;;;14.51;59.81;101004.53;5083894;28;20098;-69
2022/06/19 02:48:36;;;;;;;11.35;2.40;;;;;;;14.45;59.15;100989.38;5077831;28;20525;-68
2022/06/19 02:51:03;;;;;;;11.15;2.25;;;;;;;14.39;59.70;100969.09;5075024;28;20044;-67
2022/06/19 02:53:29;;;;;;;10.23;2.30;;;;;;;14.33;60.33;100940.00;5077344;28;20039;-67
2022/06/19 02:55:55;;;;;;;10.50;2.47;;;;;;;14.37;59.50;100926.69;5086575;28;20500;-68
2022/06/19 02:58:21;;;;;;;7.80;1.88;;;;;;;14.35;59.80;100926.84;5081453;28;20035;-69
2022/06/19 03:00:48;;;;;;;10.50;2.10;;;;;;;14.28;59.48;100946.66;5076572;28;20107;-68
2022/06/19 03:03:28;;;;;;;8.07;1.90;;;;;;;14.39;59.21;100979.53;5083334;28;20479;-68
2022/06/19 03:05:54;;;;;;;9.73;2.33;;;;;;;14.33;58.26;101027.91;5074978;28;20617;-68
2022/06/19 03:08:20;;;;;;;9.38;2.05;;;;;;;14.28;58.50;101104.03;5072996;28;20032;-68
2022/06/19 03:10:45;;;;;;;9.65;2.10;;;;;;;14.28;58.13;101109.25;5072913;28;20449;-68
2022/06/19 03:13:11;;;;;;;8.38;2.05;;;;;;;14.23;57.98;101079.34;5071423;28;20039;-68
2022/06/19 03:15:36;;;;;;;8.18;1.83;;;;;;;14.20;57.45;101017.81;5076876;28;20448;-68
2022/06/19 03:18:02;;;;;;;9.55;1.70;;;;;;;14.13;57.12;101021.97;5075134;28;20032;-68
2022/06/19 03:20:28;;;;;;;8.88;1.50;;;;;;;14.14;56.50;101013.16;5079400;28;20020;-68
2022/06/19 03:22:54;;;;;;;7.80;1.63;;;;;;;14.09;57.08;100999.72;5082454;28;20028;-68
2022/06/19 03:25:20;;;;;;;7.55;1.60;;;;;;;14.13;57.64;101006.31;5072216;28;20466;-68
2022/06/19 03:27:45;;;;;;;9.07;1.95;;;;;;;14.08;57.33;100992.88;5072905;28;20028;-68
2022/06/19 03:30:16;;;;;;;9.43;1.70;;;;;;;14.10;57.11;100990.94;5085922;28;20028;-68
2022/06/19 03:32:41;;;;;;;10.88;1.90;;;;;;;14.01;56.99;100997.03;5068813;28;20082;-68
2022/06/19 03:35:08;;;;;;;8.68;1.80;;;;;;;13.94;56.88;101016.81;5085072;28;20101;-68
2022/06/19 03:37:34;;;;;;;9.38;1.70;;;;;;;13.93;57.41;101022.97;5076479;28;20039;-68
2022/06/19 03:39:59;;;;;;;6.55;1.58;;;;;;;13.92;57.76;101001.31;5071424;28;20020;-67
2022/06/19 03:42:24;;;;;;;8.95;1.70;;;;;;;13.97;57.31;100985.22;5070701;28;20040;-67
2022/06/19 03:44:50;;;;;;;9.27;1.90;;;;;;;13.86;57.37;100951.53;5075471;28;20034;-68
2022/06/19 03:47:21;;;;;;;6.00;1.95;;;;;;;13.89;57.87;100956.47;5068875;28;20113;-68
2022/06/19 03:49:47;;;;;;;11.35;2.20;;;;;;;13.82;57.82;100920.53;5087892;28;20443;-67
2022/06/19 03:52:13;;;;;;;12.35;2.10;;;;;;;13.81;58.20;100913.66;5070341;28;20563;-68
2022/06/19 03:54:39;;;;;;;7.20;1.70;;;;;;;13.77;58.24;100922.75;5068882;28;20047;-67
2022/06/19 03:57:04;;;;;;;8.60;1.80;;;;;;;13.74;59.21;100938.66;5082282;28;20459;-69
2022/06/19 03:59:30;;;;;;;11.65;2.30;;;;;;;13.84;59.25;100922.16;5076963;28;20558;-68
2022/06/19 04:01:56;;;;;;;11.30;2.13;;;;;;;13.75;58.74;100971.56;5077172;28;20487;-68
2022/06/19 04:04:21;;;;;;;10.50;2.28;;;;;;;13.78;59.82;100966.09;5082628;28;20031;-66
2022/06/19 04:06:46;;;;;;;12.77;2.60;;;;;;;13.76;59.75;100939.34;5072457;28;20037;-67
2022/06/19 04:09:16;;;;;;;10.98;2.50;;;;;;;13.88;58.92;100928.72;5080253;28;20448;-67
2022/06/19 04:11:42;;;;;;;9.02;2.45;;;;;;;13.84;58.55;100906.53;5068066;28;20123;-66
2022/06/19 04:14:09;;;;;;;8.35;2.03;;;;;;;13.93;57.96;100895.22;5084279;28;20020;-66
2022/06/19 04:16:34;;;;;;;11.13;1.98;;;;;;;13.97;58.04;100879.13;5084795;28;20110;-67
2022/06/19 04:19:02;;;;;;;9.75;2.55;;;;;;;13.98;57.80;100841.66;5068229;28;20128;-67
2022/06/19 04:21:29;;;;;;;11.30;2.17;;;;;;;13.97;57.91;100818.34;5068022;28;20056;-67
2022/06/19 04:23:57;;;;;;;9.63;2.50;;;;;;;13.98;58.29;100806.94;5074375;28;20030;-68
2022/06/19 04:26:25;;;;;;;9.90;2.38;;;;;;;14.02;57.98;100788.25;5066547;28;20620;-67
2022/06/19 04:28:50;;;;;;;12.05;2.28;;;;;;;13.93;58.19;100759.63;5079413;28;20158;-66
2022/06/19 04:31:17;;;;;;;11.60;1.95;;;;;;;14.01;58.06;100752.72;5077938;28;20544;-67
2022/06/19 04:33:42;;;;;;;10.55;2.10;;;;;;;14.03;58.59;100749.94;5073770;28;20031;-66
2022/06/19 04:36:11;;;;;;;11.70;1.92;;;;;;;14.03;58.54;100744.75;5066164;28;20028;-66
2022/06/19 04:38:37;;;;;;;;;;;;;;;14.15;58.19;100738.31;5078186;28;20073;-66
2022/06/19 04:41:02;;;;;;;9.35;2.17;;;;;;;14.04;59.47;100756.81;5068021;28;19917;-67
2022/06/19 04:43:28;;;;;;;8.15;1.92;;;;;;;14.07;58.91;100735.66;5071028;28;20024;-66
2022/06/19 04:46:05;;;;;;;9.15;2.08;;;;;;;14.08;59.40;100726.84;5083053;28;20028;-67
2022/06/19 04:48:32;;;;;;;9.63;2.20;;;;;;;14.05;59.04;100701.09;5072872;28;20381;-67
2022/06/19 04:50:57;;;;;;;12.68;2.35;;;;;;;14.11;59.19;100710.91;5072426;28;20033;-66
2022/06/19 04:53:23;;;;;;;11.07;2.45;;;;;;;14.13;58.84;100708.97;5067306;28;20496;-66
2022/06/19 04:55:49;;;;;;;8.68;2.20;;;;;;;14.19;59.35;100717.97;5083252;28;20048;-67
2022/06/19 04:58:14;;;;;;;10.43;2.42;;;;;;;14.22;59.34;100728.94;5071098;28;20062;-66
2022/06/19 05:00:40;;;;;;;10.02;2.20;;;;;;;14.18;59.50;100711.13;5071384;28;20025;-67
2022/06/19 05:03:06;;;;;;;10.68;2.25;;;;;;;14.29;59.42;100713.50;5066292;28;20495;-67
2022/06/19 05:05:31;;;;;;;8.82;2.03;;;;;;;14.30;59.20;100705.50;5079117;28;20041;-66
2022/06/19 05:07:57;;;;;;;10.45;2.20;;;;;;;14.34;58.87;100696.41;5072414;28;20056;-67
2022/06/19 05:10:22;;;;;;;12.48;2.63;;;;;;;14.38;57.89;100711.75;5071476;28;20036;-67
2022/06/19 05:12:48;;;;;;;8.48;1.95;;;;;;;14.33;58.38;100726.06;5074615;28;20046;-67
2022/06/19 05:15:13;;;;;;;9.20;1.92;;;;;;;14.46;58.61;100750.97;5071318;28;20028;-67
2022/06/19 05:17:39;;;;;;;11.85;2.40;;;;;;;14.54;58.93;100792.81;5079173;28;20031;-67
2022/06/19 05:20:05;;;;;;;8.05;1.92;;;;;;;14.49;58.34;100782.00;5078364;28;20419;-67
2022/06/19 05:22:31;;;;;;;9.38;2.63;;;;;;;14.68;58.89;100802.72;5069129;28;20024;-66
2022/06/19 05:24:56;;;;;;;8.88;2.00;;;;;;;14.77;59.56;100817.44;5070993;28;20028;-66
2022/06/19 05:27:22;;;;;;;8.40;1.95;;;;;;;14.78;59.80;100839.97;5063847;28;20036;-67
2022/06/19 05:29:48;;;;;;;12.10;2.08;;;;;;;14.80;59.34;100895.50;5083108;28;20042;-67
2022/06/19 05:32:13;;;;;;;9.02;2.00;;;;;;;14.81;59.02;100923.22;5070700;28;20456;-67
2022/06/19 05:34:38;;;;;;;9.70;2.42;;;;;;;14.97;59.51;100921.75;5065075;28;20043;-66
2022/06/19 05:37:04;;;;;;;9.50;2.13;;;;;;;15.00;59.35;100916.19;5073316;28;20487;-67
2022/06/19 05:39:30;;;;;;;8.10;1.80;;;;;;;15.06;58.60;100894.69;5066593;28;20051;-66
2022/06/19 05:41:59;;;;;;;11.93;1.95;;;;;;;15.10;58.20;100877.75;5065355;28;20044;-66
2022/06/19 05:44:25;;;;;;;7.80;1.85;;;;;;;15.21;58.78;100901.00;5067329;28;21147;-66
2022/06/19 05:46:51;;;;;;;9.40;1.95;;;;;;;15.31;57.75;100909.56;5084155;28;20032;-67
2022/06/19 05:49:17;;;;;;;11.05;1.90;;;;;;;15.31;55.14;100914.81;5082098;28;20036;-66
2022/06/19 05:51:43;;;;;;;5.70;1.65;;;;;;;15.31;55.10;100909.56;5069144;28;20043;-67
2022/06/19 05:54:09;;;;;;;6.22;1.60;;;;;;;15.33;54.25;100918.06;5076536;28;20039;-67
2022/06/19 05:56:35;;;;;;;6.35;1.42;;;;;;;15.36;52.06;100922.97;5069286;28;20042;-67
2022/06/19 05:59:00;;;;;;;6.20;1.50;;;;;;;15.35;51.01;100926.56;5065703;28;20099;-67
2022/06/19 06:01:28;;;;;;;5.65;1.30;;;;;;;15.40;49.43;100929.53;5078117;28;20379;-67
2022/06/19 06:03:54;;;;;;;4.85;1.20;;;;;;;15.45;47.21;100936.09;5064901;28;20028;-66
2022/06/19 06:06:26;;;;;;;4.95;1.30;;;;;;;15.44;48.32;100914.38;5073114;28;20478;-67
2022/06/19 06:08:53;;;;;;;5.78;1.35;;;;;;;15.50;48.97;100923.41;5071559;28;20572;-67
2022/06/19 06:11:19;;;;;;;7.07;1.55;;;;;;;15.54;50.97;100935.16;5071813;28;20043;-66
2022/06/19 06:13:45;;;;;;;6.43;1.50;;;;;;;15.58;50.13;100962.66;5078715;28;20054;-66
2022/06/19 06:16:12;;;;;;;7.10;1.77;;;;;;;15.48;51.61;100978.44;5067051;28;20029;-65
2022/06/19 06:18:38;;;;;;;6.40;1.52;;;;;;;15.45;52.02;100962.25;5086445;28;20032;-65
2022/06/19 06:21:11;;;;;;;8.25;1.88;;;;;;;15.50;53.75;100981.72;5075692;28;20044;-65
2022/06/19 06:23:36;;;;;;;7.88;1.63;;;;;;;15.54;54.02;100995.28;5075384;28;20029;-66
2022/06/19 06:26:11;;;;;;;10.32;2.10;;;;;;;15.54;55.00;100982.22;5068106;28;20028;-64
2022/06/19 06:28:40;;;;;;;8.15;1.70;;;;;;;15.51;54.85;100993.00;5069455;28;20032;-66
2022/06/19 06:31:05;;;;;;;6.85;1.50;;;;;;;15.57;53.83;101014.13;5076627;28;20032;-67
2022/06/19 06:33:32;;;;;;;7.30;1.63;;;;;;;15.49;53.59;101039.41;5073037;28;20404;-68
2022/06/19 06:35:57;;;;;;;6.88;1.75;;;;;;;15.43;55.71;101053.91;5080116;28;20052;-67
2022/06/19 06:38:24;;;;;;;8.10;1.75;;;;;;;15.36;55.81;101079.78;5069726;28;20114;-67
2022/06/19 06:40:50;;;;;;;7.88;1.70;;;;;;;15.28;56.94;101129.38;5073283;28;20025;-67
2022/06/19 06:43:16;;;;;;;6.50;1.63;;;;;;;15.12;58.97;101118.75;5070023;28;20112;-67
2022/06/19 06:45:42;;;;;;;8.70;2.13;;;;;;;15.10;60.75;101125.94;5070141;28;20043;-68
2022/06/19 06:48:08;;;;;;;8.63;2.25;;;;;;;15.00;63.46;101093.81;5072242;28;20031;-68
2022/06/19 06:50:34;;;;;;;11.48;2.42;;;;;;;14.85;64.70;101106.53;5077731;28;20025;-67
2022/06/19 06:52:59;;;;;;;10.73;2.40;;;;;;;14.83;65.01;101124.97;5079885;28;20453;-67
2022/06/19 06:55:25;;;;;;;9.82;2.30;;;;;;;14.78;66.95;101155.91;5082299;28;20106;-69
2022/06/19 06:57:50;;;;;;;11.40;2.25;;;;;;;14.79;68.15;101196.72;5071952;28;20469;-67
2022/06/19 07:00:19;;;;;;;10.07;2.20;;;;;;;14.77;67.22;101203.06;5083394;28;20547;-68
2022/06/19 07:02:44;;;;;;;12.07;2.35;;;;;;;14.67;68.96;101181.38;5071488;28;20143;-68
2022/06/19 07:05:10;;;;;;;8.80;2.10;;;;;;;14.60;69.07;101165.47;5073881;28;20035;-67
2022/06/19 07:07:35;;;;;;;10.07;2.17;;;;;;;14.45;70.03;101145.97;5075078;28;20029;-68
2022/06/19 07:10:00;;;;;;;12.95;2.80;;;;;;;14.39;70.31;101151.75;5070216;28;20376;-67
2022/06/19 07:12:26;;;;;;;10.90;2.60;;;;;;;14.51;71.41;101177.59;5069054;28;20123;-67
2022/06/19 07:14:51;;;;;;;12.55;2.80;;;;;;;14.39;71.12;101175.25;5073064;28;20068;-67
2022/06/19 07:17:16;;;;;;;15.50;3.13;;;;;;;14.30;71.84;101164.72;5073922;28;20047;-68
2022/06/19 07:19:42;;;;;;;10.95;2.40;;;;;;;14.34;72.80;101166.09;5077982;28;20131;-67
2022/06/19 07:22:12;;;;;;;12.93;2.90;;;;;;;14.41;73.15;101184.59;5083211;28;20048;-67
2022/06/19 07:24:37;;;;;;;12.55;2.67;;;;;;;14.41;73.52;101183.78;5072033;28;20082;-67
2022/06/19 07:27:03;;;;;;;13.65;3.17;;;;;;;14.37;72.94;101195.44;5074250;28;20479;-68
2022/06/19 07:29:28;;;;;;;11.95;2.92;;;;;;;14.33;73.71;101185.28;5066156;28;20710;-67
2022/06/19 07:31:54;;;;;;;12.85;2.88;;;;;;;14.34;73.09;101186.97;5068223;28;20032;-67
2022/06/19 07:34:20;;;;;;;13.27;2.85;;;;;;;14.18;73.27;101197.13;5073873;28;20032;-68
2022/06/19 07:36:45;;;;;;;12.02;2.50;;;;;;;14.27;74.07;101185.84;5073711;28;20024;-67
2022/06/19 07:39:10;;;;;;;12.10;2.90;;;;;;;14.34;74.90;101202.63;5075060;28;20025;-67
2022/06/19 07:41:36;;;;;;;14.52;3.00;;;;;;;14.48;74.25;101250.97;5075628;28;20020;-67
2022/06/19 07:44:01;;;;;;;13.50;2.90;;;;;;;14.51;75.62;101268.13;5080392;28;20077;-67
2022/06/19 07:46:27;;;;;;;13.00;2.67;;;;;;;14.43;76.25;101275.78;5082846;28;20103;-67
2022/06/19 07:51:36;;;;;;;13.68;2.80;;;;;;;14.56;75.66;101231.97;5075667;28;20035;-67
2022/06/19 07:54:01;;;;;;;11.98;3.00;;;;;;;14.47;76.16;101185.84;5074457;28;20032;-67
2022/06/19 07:56:27;;;;;;;15.57;3.40;;;;;;;14.28;77.38;101156.22;5075855;28;20473;-68
2022/06/19 07:58:53;;;;;;;13.13;3.17;;;;;;;14.20;77.30;101122.16;5079528;28;20060;-67
2022/06/19 08:01:19;;;;;;;11.68;3.03;;;;;;;14.01;78.68;101057.00;5068199;28;20404;-68
2022/06/19 08:03:44;;;;;;;11.88;3.17;;;;;;;13.91;79.33;101022.31;5071337;28;20021;-68
2022/06/19 08:06:13;;;;;;;15.10;3.40;;;;;;;13.76;79.41;101025.38;5080951;28;20380;-67
2022/06/19 08:08:39;;;;;;;14.52;3.60;;;;;;;13.74;80.97;101005.63;5079444;28;20055;-67
2022/06/19 08:11:05;;;;;;;14.68;3.33;;;;;;;13.72;81.50;101010.97;5067321;28;20501;-67
2022/06/19 08:13:33;;;;;;;15.93;3.60;;;;;;;13.60;82.00;101019.94;5073918;28;20028;-67
2022/06/19 08:16:09;;;;;;;15.38;3.30;;;;;;;13.78;81.00;101039.09;5070710;28;20063;-67
2022/06/19 08:18:36;;;;;;;14.75;3.28;;;;;;;13.81;81.66;101049.22;5074384;28;20036;-68
2022/06/19 08:21:03;;;;;;;15.07;3.72;;;;;;;13.77;81.92;101063.53;5077331;28;20016;-66
2022/06/19 08:23:28;;;;;;;14.50;3.40;;;;;;;13.79;81.31;101087.66;5066749;28;20020;-67
2022/06/19 08:25:54;;;;;;;13.82;3.60;;;;;;;13.86;81.72;101113.16;5068152;28;20071;-67
2022/06/19 08:28:33;;;;;;;10.18;2.80;;;;;;;13.94;80.73;101173.28;5067576;28;20107;-67
2022/06/19 08:30:59;;;;;;;13.85;3.30;;;;;;;13.81;79.33;101200.44;5081658;28;20085;-68
2022/06/19 08:33:24;;;;;;;13.05;2.95;;;;;;;13.96;80.29;101229.53;5075665;28;20468;-67
2022/06/19 08:35:53;;;;;;;11.88;2.95;;;;;;;13.88;79.48;101223.34;5068604;28;20035;-67
2022/06/19 08:38:25;;;;;;;14.13;3.30;;;;;;;13.77;80.32;101211.28;5069380;28;20035;-67
2022/06/19 08:41:19;;;;;;;11.70;2.88;;;;;;;13.79;80.87;101150.22;5083179;28;20115;-68
2022/06/19 08:43:53;;;;;;;12.00;2.70;;;;;;;13.82;81.51;101105.63;5077458;28;20107;-67
2022/06/19 08:46:39;;;;;;;14.65;3.38;;;;;;;13.92;81.10;101143.91;5077862;28;20161;-67
2022/06/19 08:49:21;;;;;;;14.35;3.20;;;;;;;13.96;80.94;101192.22;5077547;28;20030;-67
2022/06/19 08:52:04;;;;;;;14.25;3.30;;;;;;;13.98;80.40;101179.84;5076057;28;20028;-68
2022/06/19 08:54:45;;;;;;;14.43;3.10;;;;;;;13.90;80.26;101140.63;5072163;28;20494;-67
2022/06/19 08:57:11;;;;;;;11.63;3.13;;;;;;;13.90;79.00;101124.97;5075790;28;20035;-68
2022/06/19 09:00:09;;;;;;;13.15;3.08;;;;;;;13.93;78.85;101158.56;5072744;28;20029;-67
2022/06/19 09:02:34;;;;;;;;;;;;;;;14.07;78.12;101135.50;5067958;28;20124;-67
2022/06/19 09:05:45;;;;;;;12.20;2.93;;;;;;;13.89;79.77;101118.13;5066329;28;20027;-67
2022/06/19 09:08:34;;;;;;;13.45;3.00;;;;;;;13.95;80.15;101117.56;5074354;28;20496;-67
2022/06/19 09:11:45;;;;;;;11.20;3.17;;;;;;;14.26;81.14;101090.28;5078725;28;20582;-67
2022/06/19 09:14:33;;;;;;;12.55;2.97;;;;;;;14.41;80.17;101055.91;5075817;28;20078;-66
2022/06/19 09:17:10;;;;;;;9.18;2.55;;;;;;;14.40;78.95;101020.34;5066426;28;20028;-67
2022/06/19 09:19:46;;;;;;;13.52;2.55;;;;;;;14.55;79.05;100995.41;5068501;28;20148;-67
2022/06/19 09:22:45;;;;;;;9.20;2.45;;;;;;;14.62;74.79;100996.47;5066285;28;20020;-67
2022/06/19 09:25:35;;;;;;;9.43;2.80;;;;;;;14.57;73.77;100998.72;5065224;28;20031;-67
2022/06/19 09:28:19;;;;;;;11.38;2.85;;;;;;;14.71;74.62;100995.59;5072238;28;20024;-67
2022/06/19 09:30:56;;;;;;;11.65;2.78;;;;;;;15.09;76.44;101004.13;5075447;28;20024;-67
2022/06/19 09:33:48;;;;;;;8.55;2.20;;;;;;;15.07;72.95;101017.31;5070263;28;20585;-67
2022/06/19 09:36:40;;;;;;;9.18;2.42;;;;;;;15.20;72.05;101043.09;5065129;28;20480;-68
2022/06/19 09:39:27;;;;;;;8.48;2.10;;;;;;;15.42;72.89;101073.13;5065086;28;20025;-67
2022/06/19 09:42:24;;;;;;;8.88;2.20;;;;;;;15.49;70.84;101091.69;5071233;28;20035;-67
2022/06/19 09:45:11;;;;;;;9.20;2.05;;;;;;;15.56;69.03;101101.38;5063458;28;20405;-67
2022/06/19 09:47:42;;;;;;;8.40;1.90;;;;;;;15.70;67.65;101123.56;5073296;28;20032;-67
2022/06/19 09:50:36;;;;;;;8.30;2.25;;;;;;;15.69;70.25;101140.22;5076776;28;20153;-67
2022/06/19 09:53:25;;;;;;;8.45;2.00;;;;;;;15.98;66.36;101136.53;5071642;28;20056;-68
2022/06/19 09:55:58;;;;;;;7.43;1.70;;;;;;;16.01;63.87;101125.78;5075759;28;20032;-67
2022/06/19 09:58:33;;;;;;;6.95;1.65;;;;;;;16.12;64.78;101112.44;5065972;28;20024;-68
2022/06/19 10:01:02;;;;;;;7.22;1.75;;;;;;;16.08;62.49;101117.16;5068528;28;20035;-67
2022/06/19 10:03:40;;;;;;;7.70;2.00;;;;;;;16.17;64.29;101115.38;5069170;28;20034;-67
2022/06/19 10:06:15;;;;;;;7.20;1.92;;;;;;;16.24;63.72;101111.19;5066009;28;20082;-67
2022/06/19 10:08:56;;;;;;;8.43;1.90;;;;;;;16.40;64.67;101100.81;5069740;28;20099;-68
2022/06/19 10:11:27;;;;;;;8.43;2.17;;;;;;;16.42;63.16;101083.16;5080744;28;20052;-67
2022/06/19 10:14:01;;;;;;;7.85;2.28;;;;;;;16.70;64.46;101081.16;5064782;28;20636;-67
2022/06/19 10:16:38;;;;;;;7.22;1.88;;;;;;;16.66;64.05;101079.00;5070492;28;20532;-67
2022/06/19 10:19:14;;;;;;;8.07;2.13;;;;;;;16.63;63.05;101076.66;5072675;28;20052;-67
2022/06/19 10:22:15;;;;;;;8.63;2.00;;;;;;;16.67;63.16;101075.38;5067657;28;20024;-67
2022/06/19 10:24:46;;;;;;;8.88;1.98;;;;;;;16.71;63.01;101066.28;5065755;28;20029;-67
2022/06/19 10:27:35;;;;;;;7.35;1.85;;;;;;;16.72;62.19;101053.00;5077917;28;20024;-67
2022/06/19 10:30:09;;;;;;;8.23;2.10;;;;;;;16.77;64.34;101055.16;5071833;28;20032;-68
2022/06/19 10:32:40;;;;;;;6.88;2.20;;;;;;;16.82;64.30;101042.41;5075241;28;20036;-67
2022/06/19 10:35:17;;;;;;;8.30;2.25;;;;;;;16.68;63.58;101061.31;5065738;28;20036;-68
2022/06/19 10:38:03;;;;;;;9.00;2.40;;;;;;;16.69;64.65;101063.78;5065179;28;20043;-67
2022/06/19 10:40:34;;;;;;;8.32;2.20;;;;;;;16.77;64.33;101054.34;5077719;28;20032;-68
2022/06/19 10:43:40;;;;;;;8.55;2.25;;;;;;;16.85;64.03;101036.81;5069163;28;20032;-67
2022/06/19 10:46:09;;;;;;;8.60;2.30;;;;;;;16.75;63.34;101025.69;5067490;28;20841;-67
2022/06/19 10:48:48;;;;;;;9.88;2.10;;;;;;;16.93;65.19;101039.47;5067607;28;20103;-68
2022/06/19 10:51:23;;;;;;;9.57;2.38;;;;;;;16.99;63.74;101044.06;5078348;28;20055;-67
2022/06/19 10:54:14;;;;;;;7.38;2.35;;;;;;;17.18;64.91;101042.13;5075258;28;20033;-67
2022/06/19 10:57:05;;;;;;;8.13;2.25;;;;;;;17.14;63.12;101051.28;5074935;28;20418;-68
2022/06/19 10:59:31;;;;;;;7.15;2.40;;;;;;;17.21;65.00;101057.53;5067399;28;20052;-68
2022/06/19 11:05:29;;;;;;;8.70;2.53;;;;;;;17.41;65.31;101058.03;5071971;28;20054;-67
2022/06/19 11:07:54;;;;;;;9.45;2.83;;;;;;;17.47;67.96;101047.69;5071184;28;20033;-67
2022/06/19 11:10:40;;;;;;;8.50;2.88;;;;;;;17.41;65.51;101076.38;5067691;28;20082;-68
2022/06/19 11:13:05;;;;;;;10.35;3.00;;;;;;;17.32;66.64;101093.91;5081673;28;20438;-68
2022/06/19 11:15:34;;;;;;;9.38;3.25;;;;;;;17.31;66.41;101104.53;5070994;28;20467;-67
2022/06/19 11:18:26;;;;;;;10.05;3.28;;;;;;;17.43;67.15;101122.44;5076017;28;20024;-68
2022/06/19 11:21:06;;;;;;;8.65;3.15;;;;;;;17.41;67.51;101123.56;5071730;28;20361;-68
2022/06/19 11:23:39;;;;;;;9.35;3.13;;;;;;;17.23;67.77;101118.47;5071622;28;20024;-67
2022/06/19 11:26:13;;;;;;;10.90;3.28;;;;;;;17.08;67.87;101125.31;5081988;28;20464;-68
2022/06/19 11:29:17;;;;;;;10.43;3.20;;;;;;;16.95;67.94;101110.88;5073455;28;20032;-67
2022/06/19 11:32:05;;;;;;;11.82;3.55;;;;;;;17.10;68.86;101102.41;5047146;28;20051;-67
2022/06/19 11:34:44;;;;;;;12.55;3.53;;;;;;;16.89;69.06;101100.22;5074498;28;20020;-68
2022/06/19 11:37:22;;;;;;;9.32;3.38;;;;;;;16.95;70.00;101110.88;5076758;28;20035;-66
2022/06/19 11:39:49;;;;;;;10.07;3.33;;;;;;;16.86;70.17;101095.28;5076478;28;20357;-67
2022/06/19 11:42:35;;;;;;;10.15;3.28;;;;;;;16.94;70.00;101108.41;5069566;28;20431;-67
2022/06/19 11:45:23;;;;;;;9.88;3.10;;;;;;;16.94;69.88;101114.47;5082394;28;20048;-68
2022/06/19 11:47:54;;;;;;;9.30;2.92;;;;;;;16.92;69.47;101108.59;5077656;28;20949;-69